Impacts TAF Board
For situational awareness. Not to be used for flight planning purposes.
IDs:

KELP - El Paso Intl, TX, US

Issued at 1720 UTC 01 Feb 2023
Updated at 2251 UTC 01 Feb 2023
Potential Impact None Slight Moderate High
Time2151Z 01/23Z 02/00Z 02/01Z 02/02Z 02/03Z 02/04Z 02/05Z 02/06Z 02/07Z 02/08Z 02/09Z 02/10Z 02/11Z>>
Type OBS PRVL PRVL PRVL PRVL PRVL PRVL PRVL PRVL PRVL PRVL PRVL PRVL PRVL
VIS 10 >6 >6 >6 >6 >6 >6 >6 >6 >6 >6 >6 >6 >6
CIG -- 200 200 70 70 70 70 70 70 70 70 70 70 70
Cover FEW BKN BKN BKN BKN BKN BKN BKN BKN BKN BKN BKN BKN BKN
FltCat VFR VFR VFR VFR VFR VFR VFR VFR VFR VFR VFR VFR VFR VFR
WX -- -- -- VCSH VCSH VCSH VCSH VCSH VCSH VCSH VCSH VCSH VCSH VCSH
WDir 120 70 70 90 90 90 90 90 120 120 120 120 120 120
WSpd 7 6 6 6 6 6 6 6 5 5 5 5 5 5
WGst -- -- -- -- -- -- -- -- -- -- -- -- -- --
WSHgt -- -- -- -- -- -- -- -- -- -- -- -- -- --
WSDir -- -- -- -- -- -- -- -- -- -- -- -- -- --
WSSpd -- -- -- -- -- -- -- -- -- -- -- -- -- --
R04/22
XWnd -7 -2 -2 -4 -4 -4 -4 -4 -5 -5 -5 -5 -5 -5
HWnd 2 6 6 5 5 5 5 5 2 2 2 2 2 2
R08/26
XWnd -3 2 2 0 0 0 0 0 -2 -2 -2 -2 -2 -2
HWnd 6 6 6 6 6 6 6 6 4 4 4 4 4 4

NOTE: LAMP data beyond the time of the TAF data is denoted as LAMP in Type and colored magenta.

Raw TAF
KELP 011720Z 0118/0218 07006KT P6SM SCT080 BKN200
  FM020100 09006KT P6SM VCSH FEW020 BKN070
  FM020600 12005KT P6SM VCSH SCT015 BKN070


Raw METAR
KELP 012151Z 12007KT 10SM FEW075 FEW110 11/M02 A3004 RMK AO2 SLP153 VIRGA DSNT W AND NW-N T01061022
KELP 012051Z 19004KT 10SM FEW075 SCT110 10/M02 A3005 RMK AO2 SLP158 VIRGA DSNT W-NW T01001022 56027
KELP 011951Z VRB04KT 10SM FEW075 SCT110 09/M03 A3006 RMK AO2 SLP162 T00941028

METAR Board
Radar Display
Forecast Discussion

For situational awareness. Not to be used for flight planning purposes.